sensor_id;sensor_type;location;lat;lon;timestamp;P1;durP1;ratioP1;P2;durP2;ratioP2
8544;SDS011;4310;51.054;6.994;2022-08-14T00:00:47;4.70;;;4.35;;
8544;SDS011;4310;51.054;6.994;2022-08-14T00:01:50;4.85;;;4.05;;
8544;SDS011;4310;51.054;6.994;2022-08-14T00:04:05;4.67;;;4.28;;
8544;SDS011;4310;51.054;6.994;2022-08-14T00:05:10;5.42;;;4.45;;
8544;SDS011;4310;51.054;6.994;2022-08-14T00:06:14;4.87;;;4.40;;
8544;SDS011;4310;51.054;6.994;2022-08-14T00:07:18;4.95;;;4.40;;
8544;SDS011;4310;51.054;6.994;2022-08-14T00:08:21;4.70;;;4.15;;
8544;SDS011;4310;51.054;6.994;2022-08-14T00:09:25;4.85;;;4.20;;
8544;SDS011;4310;51.054;6.994;2022-08-14T00:10:29;4.60;;;4.20;;
8544;SDS011;4310;51.054;6.994;2022-08-14T00:11:33;5.28;;;4.78;;
8544;SDS011;4310;51.054;6.994;2022-08-14T00:12:44;4.60;;;4.20;;
8544;SDS011;4310;51.054;6.994;2022-08-14T00:13:42;5.10;;;4.70;;
8544;SDS011;4310;51.054;6.994;2022-08-14T00:15:58;6.45;;;4.60;;
8544;SDS011;4310;51.054;6.994;2022-08-14T00:17:02;5.00;;;4.60;;
8544;SDS011;4310;51.054;6.994;2022-08-14T00:18:07;5.25;;;4.75;;
8544;SDS011;4310;51.054;6.994;2022-08-14T00:19:11;5.22;;;4.80;;
8544;SDS011;4310;51.054;6.994;2022-08-14T00:20:15;5.37;;;4.83;;
8544;SDS011;4310;51.054;6.994;2022-08-14T00:22:31;5.30;;;4.58;;
8544;SDS011;4310;51.054;6.994;2022-08-14T00:23:34;4.92;;;4.53;;
8544;SDS011;4310;51.054;6.994;2022-08-14T00:24:38;5.30;;;4.80;;
8544;SDS011;4310;51.054;6.994;2022-08-14T00:26:17;4.85;;;4.45;;
8544;SDS011;4310;51.054;6.994;2022-08-14T00:27:20;5.20;;;4.70;;
8544;SDS011;4310;51.054;6.994;2022-08-14T00:28:24;5.33;;;4.83;;
8544;SDS011;4310;51.054;6.994;2022-08-14T00:29:29;5.42;;;5.00;;
8544;SDS011;4310;51.054;6.994;2022-08-14T00:30:33;5.35;;;4.92;;
8544;SDS011;4310;51.054;6.994;2022-08-14T00:31:36;4.72;;;4.40;;
8544;SDS011;4310;51.054;6.994;2022-08-14T00:32:40;5.30;;;4.90;;
8544;SDS011;4310;51.054;6.994;2022-08-14T00:33:44;4.95;;;4.53;;
8544;SDS011;4310;51.054;6.994;2022-08-14T00:34:48;5.30;;;4.83;;
8544;SDS011;4310;51.054;6.994;2022-08-14T00:35:52;5.50;;;5.00;;
8544;SDS011;4310;51.054;6.994;2022-08-14T00:38:07;7.65;;;5.70;;
8544;SDS011;4310;51.054;6.994;2022-08-14T00:39:12;5.65;;;5.17;;
8544;SDS011;4310;51.054;6.994;2022-08-14T00:40:17;5.40;;;4.90;;
8544;SDS011;4310;51.054;6.994;2022-08-14T00:41:21;5.45;;;5.00;;
8544;SDS011;4310;51.054;6.994;2022-08-14T00:42:25;5.12;;;4.67;;
8544;SDS011;4310;51.054;6.994;2022-08-14T00:43:29;5.33;;;4.80;;
8544;SDS011;4310;51.054;6.994;2022-08-14T00:45:45;5.60;;;5.10;;
8544;SDS011;4310;51.054;6.994;2022-08-14T00:46:49;5.45;;;4.95;;
8544;SDS011;4310;51.054;6.994;2022-08-14T00:47:52;5.62;;;5.15;;
8544;SDS011;4310;51.054;6.994;2022-08-14T00:48:56;5.40;;;4.80;;
8544;SDS011;4310;51.054;6.994;2022-08-14T00:50:00;5.10;;;4.80;;
8544;SDS011;4310;51.054;6.994;2022-08-14T00:51:05;6.92;;;5.67;;
8544;SDS011;4310;51.054;6.994;2022-08-14T00:52:10;6.37;;;5.35;;
8544;SDS011;4310;51.054;6.994;2022-08-14T00:53:14;5.75;;;5.25;;
8544;SDS011;4310;51.054;6.994;2022-08-14T00:54:19;5.80;;;5.25;;
8544;SDS011;4310;51.054;6.994;2022-08-14T00:56:34;5.53;;;5.03;;
8544;SDS011;4310;51.054;6.994;2022-08-14T00:57:39;5.83;;;5.30;;
8544;SDS011;4310;51.054;6.994;2022-08-14T00:58:43;5.47;;;4.97;;
8544;SDS011;4310;51.054;6.994;2022-08-14T00:59:48;5.55;;;5.15;;
8544;SDS011;4310;51.054;6.994;2022-08-14T01:00:52;5.92;;;5.33;;
8544;SDS011;4310;51.054;6.994;2022-08-14T01:01:57;5.75;;;5.25;;
8544;SDS011;4310;51.054;6.994;2022-08-14T01:03:01;6.12;;;5.53;;
8544;SDS011;4310;51.054;6.994;2022-08-14T01:04:05;5.95;;;5.35;;
8544;SDS011;4310;51.054;6.994;2022-08-14T01:05:10;5.92;;;5.40;;
8544;SDS011;4310;51.054;6.994;2022-08-14T01:06:16;5.97;;;5.45;;
8544;SDS011;4310;51.054;6.994;2022-08-14T01:07:20;5.87;;;5.37;;
8544;SDS011;4310;51.054;6.994;2022-08-14T01:08:25;6.10;;;5.50;;
8544;SDS011;4310;51.054;6.994;2022-08-14T01:09:29;6.17;;;5.67;;
8544;SDS011;4310;51.054;6.994;2022-08-14T01:10:33;6.10;;;5.50;;
8544;SDS011;4310;51.054;6.994;2022-08-14T01:11:54;5.97;;;5.47;;
8544;SDS011;4310;51.054;6.994;2022-08-14T01:12:59;7.15;;;5.33;;
8544;SDS011;4310;51.054;6.994;2022-08-14T01:14:03;6.17;;;5.55;;
8544;SDS011;4310;51.054;6.994;2022-08-14T01:15:08;6.53;;;5.85;;
8544;SDS011;4310;51.054;6.994;2022-08-14T01:16:13;5.85;;;5.35;;
8544;SDS011;4310;51.054;6.994;2022-08-14T01:17:17;6.35;;;5.75;;
8544;SDS011;4310;51.054;6.994;2022-08-14T01:18:21;6.20;;;5.60;;
8544;SDS011;4310;51.054;6.994;2022-08-14T01:19:43;6.30;;;5.80;;
8544;SDS011;4310;51.054;6.994;2022-08-14T01:22:16;6.00;;;5.40;;
8544;SDS011;4310;51.054;6.994;2022-08-14T01:23:20;6.08;;;5.60;;
8544;SDS011;4310;51.054;6.994;2022-08-14T01:24:24;6.12;;;5.62;;
8544;SDS011;4310;51.054;6.994;2022-08-14T01:25:27;6.42;;;5.83;;
8544;SDS011;4310;51.054;6.994;2022-08-14T01:26:31;6.37;;;5.78;;
8544;SDS011;4310;51.054;6.994;2022-08-14T01:28:48;6.35;;;5.75;;
8544;SDS011;4310;51.054;6.994;2022-08-14T01:29:55;5.97;;;5.47;;
8544;SDS011;4310;51.054;6.994;2022-08-14T01:30:59;6.15;;;5.65;;
8544;SDS011;4310;51.054;6.994;2022-08-14T01:32:03;6.05;;;5.55;;
8544;SDS011;4310;51.054;6.994;2022-08-14T01:33:08;6.15;;;5.60;;
8544;SDS011;4310;51.054;6.994;2022-08-14T01:34:14;6.30;;;5.72;;
8544;SDS011;4310;51.054;6.994;2022-08-14T01:35:18;6.05;;;5.55;;
8544;SDS011;4310;51.054;6.994;2022-08-14T01:36:23;6.25;;;5.65;;
8544;SDS011;4310;51.054;6.994;2022-08-14T01:37:27;6.50;;;6.00;;
8544;SDS011;4310;51.054;6.994;2022-08-14T01:38:32;6.20;;;5.67;;
8544;SDS011;4310;51.054;6.994;2022-08-14T01:40:48;6.42;;;5.80;;
8544;SDS011;4310;51.054;6.994;2022-08-14T01:41:52;6.60;;;6.10;;
8544;SDS011;4310;51.054;6.994;2022-08-14T01:42:58;6.70;;;6.10;;
8544;SDS011;4310;51.054;6.994;2022-08-14T01:44:03;6.30;;;5.72;;
8544;SDS011;4310;51.054;6.994;2022-08-14T01:46:20;6.33;;;5.80;;
8544;SDS011;4310;51.054;6.994;2022-08-14T01:47:24;6.40;;;5.90;;
8544;SDS011;4310;51.054;6.994;2022-08-14T01:48:28;7.03;;;6.42;;
8544;SDS011;4310;51.054;6.994;2022-08-14T01:49:34;6.47;;;5.87;;
8544;SDS011;4310;51.054;6.994;2022-08-14T01:50:38;5.85;;;5.40;;
8544;SDS011;4310;51.054;6.994;2022-08-14T01:51:43;6.25;;;5.67;;
8544;SDS011;4310;51.054;6.994;2022-08-14T01:52:47;6.37;;;5.80;;
8544;SDS011;4310;51.054;6.994;2022-08-14T01:53:51;6.58;;;5.80;;
8544;SDS011;4310;51.054;6.994;2022-08-14T01:54:55;6.50;;;5.90;;
8544;SDS011;4310;51.054;6.994;2022-08-14T01:56:01;6.10;;;5.60;;
8544;SDS011;4310;51.054;6.994;2022-08-14T01:58:16;6.60;;;6.10;;
8544;SDS011;4310;51.054;6.994;2022-08-14T01:59:21;6.10;;;5.55;;
8544;SDS011;4310;51.054;6.994;2022-08-14T02:00:26;6.25;;;5.75;;
8544;SDS011;4310;51.054;6.994;2022-08-14T02:01:31;6.47;;;5.87;;
8544;SDS011;4310;51.054;6.994;2022-08-14T02:02:36;6.33;;;5.83;;
8544;SDS011;4310;51.054;6.994;2022-08-14T02:03:40;6.63;;;6.03;;
8544;SDS011;4310;51.054;6.994;2022-08-14T02:04:44;6.33;;;5.83;;
8544;SDS011;4310;51.054;6.994;2022-08-14T02:05:48;6.42;;;5.83;;
8544;SDS011;4310;51.054;6.994;2022-08-14T02:08:04;8.15;;;6.20;;
8544;SDS011;4310;51.054;6.994;2022-08-14T02:09:08;6.55;;;5.95;;
8544;SDS011;4310;51.054;6.994;2022-08-14T02:10:12;6.72;;;6.05;;
8544;SDS011;4310;51.054;6.994;2022-08-14T02:11:16;6.60;;;6.00;;
8544;SDS011;4310;51.054;6.994;2022-08-14T02:12:23;6.50;;;5.87;;
8544;SDS011;4310;51.054;6.994;2022-08-14T02:13:26;6.40;;;5.90;;
8544;SDS011;4310;51.054;6.994;2022-08-14T02:14:30;7.08;;;6.37;;
8544;SDS011;4310;51.054;6.994;2022-08-14T02:15:34;6.42;;;5.90;;
8544;SDS011;4310;51.054;6.994;2022-08-14T02:17:51;6.75;;;6.08;;
8544;SDS011;4310;51.054;6.994;2022-08-14T02:18:56;7.15;;;6.45;;
8544;SDS011;4310;51.054;6.994;2022-08-14T02:20:00;6.75;;;6.20;;
8544;SDS011;4310;51.054;6.994;2022-08-14T02:21:04;7.20;;;6.00;;
8544;SDS011;4310;51.054;6.994;2022-08-14T02:22:08;6.97;;;6.37;;
8544;SDS011;4310;51.054;6.994;2022-08-14T02:23:12;6.67;;;6.08;;
8544;SDS011;4310;51.054;6.994;2022-08-14T02:24:16;7.05;;;6.42;;
8544;SDS011;4310;51.054;6.994;2022-08-14T02:25:22;6.85;;;6.25;;
8544;SDS011;4310;51.054;6.994;2022-08-14T02:26:26;7.00;;;6.30;;
8544;SDS011;4310;51.054;6.994;2022-08-14T02:27:30;7.20;;;6.60;;
8544;SDS011;4310;51.054;6.994;2022-08-14T02:28:35;7.17;;;6.58;;
8544;SDS011;4310;51.054;6.994;2022-08-14T02:29:39;7.05;;;6.42;;
8544;SDS011;4310;51.054;6.994;2022-08-14T02:30:43;6.90;;;6.25;;
8544;SDS011;4310;51.054;6.994;2022-08-14T02:31:48;7.35;;;6.75;;
8544;SDS011;4310;51.054;6.994;2022-08-14T02:32:52;7.47;;;6.67;;
8544;SDS011;4310;51.054;6.994;2022-08-14T02:33:56;7.17;;;6.58;;
8544;SDS011;4310;51.054;6.994;2022-08-14T02:35:00;6.90;;;6.30;;
8544;SDS011;4310;51.054;6.994;2022-08-14T02:36:05;7.47;;;6.78;;
8544;SDS011;4310;51.054;6.994;2022-08-14T02:37:10;6.62;;;6.10;;
8544;SDS011;4310;51.054;6.994;2022-08-14T02:38:14;6.83;;;6.15;;
8544;SDS011;4310;51.054;6.994;2022-08-14T02:39:18;6.85;;;6.20;;
8544;SDS011;4310;51.054;6.994;2022-08-14T02:40:22;7.30;;;6.70;;
8544;SDS011;4310;51.054;6.994;2022-08-14T02:41:27;7.30;;;6.62;;
8544;SDS011;4310;51.054;6.994;2022-08-14T02:43:43;7.20;;;6.50;;
8544;SDS011;4310;51.054;6.994;2022-08-14T02:44:47;7.42;;;6.58;;
8544;SDS011;4310;51.054;6.994;2022-08-14T02:45:51;7.65;;;6.40;;
8544;SDS011;4310;51.054;6.994;2022-08-14T02:46:55;6.87;;;6.28;;
8544;SDS011;4310;51.054;6.994;2022-08-14T02:49:10;7.12;;;6.42;;
8544;SDS011;4310;51.054;6.994;2022-08-14T02:50:14;6.37;;;5.87;;
8544;SDS011;4310;51.054;6.994;2022-08-14T02:51:18;6.67;;;6.12;;
8544;SDS011;4310;51.054;6.994;2022-08-14T02:52:22;6.95;;;6.35;;
8544;SDS011;4310;51.054;6.994;2022-08-14T02:53:27;7.00;;;6.40;;
8544;SDS011;4310;51.054;6.994;2022-08-14T02:54:31;6.90;;;6.20;;
8544;SDS011;4310;51.054;6.994;2022-08-14T02:55:35;7.20;;;6.58;;
8544;SDS011;4310;51.054;6.994;2022-08-14T02:56:40;7.00;;;6.50;;
8544;SDS011;4310;51.054;6.994;2022-08-14T02:58:56;6.92;;;6.33;;
8544;SDS011;4310;51.054;6.994;2022-08-14T03:00:01;7.15;;;6.45;;
8544;SDS011;4310;51.054;6.994;2022-08-14T03:01:05;6.95;;;6.45;;
8544;SDS011;4310;51.054;6.994;2022-08-14T03:02:09;6.78;;;6.25;;
8544;SDS011;4310;51.054;6.994;2022-08-14T03:03:14;6.97;;;6.40;;
8544;SDS011;4310;51.054;6.994;2022-08-14T03:05:29;7.00;;;6.40;;
8544;SDS011;4310;51.054;6.994;2022-08-14T03:06:33;7.30;;;6.40;;
8544;SDS011;4310;51.054;6.994;2022-08-14T03:07:37;7.35;;;6.75;;
8544;SDS011;4310;51.054;6.994;2022-08-14T03:08:41;6.95;;;6.35;;
8544;SDS011;4310;51.054;6.994;2022-08-14T03:09:45;7.33;;;6.62;;
8544;SDS011;4310;51.054;6.994;2022-08-14T03:10:49;7.05;;;6.40;;
8544;SDS011;4310;51.054;6.994;2022-08-14T03:11:52;7.10;;;6.40;;
8544;SDS011;4310;51.054;6.994;2022-08-14T03:12:57;7.47;;;6.87;;
8544;SDS011;4310;51.054;6.994;2022-08-14T03:14:00;7.12;;;6.47;;
8544;SDS011;4310;51.054;6.994;2022-08-14T03:15:05;7.25;;;6.58;;
8544;SDS011;4310;51.054;6.994;2022-08-14T03:17:24;7.20;;;6.50;;
8544;SDS011;4310;51.054;6.994;2022-08-14T03:18:28;7.22;;;6.53;;
8544;SDS011;4310;51.054;6.994;2022-08-14T03:19:32;7.60;;;6.92;;
8544;SDS011;4310;51.054;6.994;2022-08-14T03:20:36;7.37;;;6.78;;
8544;SDS011;4310;51.054;6.994;2022-08-14T03:21:39;7.87;;;6.50;;
8544;SDS011;4310;51.054;6.994;2022-08-14T03:22:43;7.53;;;6.85;;
8544;SDS011;4310;51.054;6.994;2022-08-14T03:23:49;7.58;;;6.87;;
8544;SDS011;4310;51.054;6.994;2022-08-14T03:24:53;7.65;;;6.95;;
8544;SDS011;4310;51.054;6.994;2022-08-14T03:27:09;7.27;;;6.63;;
8544;SDS011;4310;51.054;6.994;2022-08-14T03:28:15;7.50;;;6.80;;
8544;SDS011;4310;51.054;6.994;2022-08-14T03:29:19;7.08;;;6.47;;
8544;SDS011;4310;51.054;6.994;2022-08-14T03:30:23;7.70;;;7.00;;
8544;SDS011;4310;51.054;6.994;2022-08-14T03:31:27;7.42;;;6.83;;
8544;SDS011;4310;51.054;6.994;2022-08-14T03:32:31;8.00;;;7.10;;
8544;SDS011;4310;51.054;6.994;2022-08-14T03:33:35;7.30;;;6.72;;
8544;SDS011;4310;51.054;6.994;2022-08-14T03:34:39;7.47;;;6.85;;
8544;SDS011;4310;51.054;6.994;2022-08-14T03:35:44;7.85;;;7.25;;
8544;SDS011;4310;51.054;6.994;2022-08-14T03:36:49;7.30;;;6.70;;
8544;SDS011;4310;51.054;6.994;2022-08-14T03:37:56;7.50;;;6.90;;
8544;SDS011;4310;51.054;6.994;2022-08-14T03:39:03;7.75;;;7.05;;
8544;SDS011;4310;51.054;6.994;2022-08-14T03:40:08;7.90;;;7.20;;
8544;SDS011;4310;51.054;6.994;2022-08-14T03:41:14;8.50;;;7.12;;
8544;SDS011;4310;51.054;6.994;2022-08-14T03:42:18;7.75;;;7.05;;
8544;SDS011;4310;51.054;6.994;2022-08-14T03:44:35;7.60;;;6.90;;
8544;SDS011;4310;51.054;6.994;2022-08-14T03:45:41;7.50;;;6.80;;
8544;SDS011;4310;51.054;6.994;2022-08-14T03:46:46;8.05;;;7.15;;
8544;SDS011;4310;51.054;6.994;2022-08-14T03:47:49;8.83;;;7.42;;
8544;SDS011;4310;51.054;6.994;2022-08-14T03:48:53;7.85;;;7.15;;
8544;SDS011;4310;51.054;6.994;2022-08-14T03:49:57;7.95;;;7.15;;
8544;SDS011;4310;51.054;6.994;2022-08-14T03:51:01;7.90;;;7.20;;
8544;SDS011;4310;51.054;6.994;2022-08-14T03:52:06;7.70;;;7.00;;
8544;SDS011;4310;51.054;6.994;2022-08-14T03:53:10;8.18;;;7.40;;
8544;SDS011;4310;51.054;6.994;2022-08-14T03:54:15;8.20;;;7.50;;
8544;SDS011;4310;51.054;6.994;2022-08-14T03:55:19;8.50;;;7.53;;
8544;SDS011;4310;51.054;6.994;2022-08-14T03:56:23;8.23;;;7.42;;
8544;SDS011;4310;51.054;6.994;2022-08-14T03:58:39;7.97;;;7.28;;
8544;SDS011;4310;51.054;6.994;2022-08-14T03:59:43;8.13;;;7.42;;
8544;SDS011;4310;51.054;6.994;2022-08-14T04:00:47;7.87;;;7.25;;
8544;SDS011;4310;51.054;6.994;2022-08-14T04:03:04;8.13;;;7.40;;
8544;SDS011;4310;51.054;6.994;2022-08-14T04:04:08;7.87;;;7.28;;
8544;SDS011;4310;51.054;6.994;2022-08-14T04:05:12;7.95;;;7.15;;
8544;SDS011;4310;51.054;6.994;2022-08-14T04:06:16;8.50;;;7.80;;
8544;SDS011;4310;51.054;6.994;2022-08-14T04:07:21;8.00;;;7.30;;
8544;SDS011;4310;51.054;6.994;2022-08-14T04:08:25;7.80;;;7.20;;
8544;SDS011;4310;51.054;6.994;2022-08-14T04:09:30;8.35;;;7.60;;
8544;SDS011;4310;51.054;6.994;2022-08-14T04:10:34;8.15;;;7.45;;
8544;SDS011;4310;51.054;6.994;2022-08-14T04:11:38;8.13;;;7.42;;
8544;SDS011;4310;51.054;6.994;2022-08-14T04:12:42;8.38;;;7.67;;
8544;SDS011;4310;51.054;6.994;2022-08-14T04:14:57;8.45;;;7.75;;
8544;SDS011;4310;51.054;6.994;2022-08-14T04:17:12;8.57;;;7.77;;
8544;SDS011;4310;51.054;6.994;2022-08-14T04:18:16;8.78;;;7.87;;
8544;SDS011;4310;51.054;6.994;2022-08-14T04:19:20;9.03;;;8.13;;
8544;SDS011;4310;51.054;6.994;2022-08-14T04:20:25;8.40;;;7.60;;
8544;SDS011;4310;51.054;6.994;2022-08-14T04:21:29;8.68;;;7.87;;
8544;SDS011;4310;51.054;6.994;2022-08-14T04:22:34;8.55;;;7.85;;
8544;SDS011;4310;51.054;6.994;2022-08-14T04:23:39;8.03;;;7.33;;
8544;SDS011;4310;51.054;6.994;2022-08-14T04:24:44;8.63;;;7.83;;
8544;SDS011;4310;51.054;6.994;2022-08-14T04:25:48;8.43;;;7.72;;
8544;SDS011;4310;51.054;6.994;2022-08-14T04:26:53;8.40;;;7.57;;
8544;SDS011;4310;51.054;6.994;2022-08-14T04:27:57;8.40;;;7.60;;
8544;SDS011;4310;51.054;6.994;2022-08-14T04:29:01;8.78;;;8.08;;
8544;SDS011;4310;51.054;6.994;2022-08-14T04:30:06;7.90;;;7.23;;
8544;SDS011;4310;51.054;6.994;2022-08-14T04:31:10;8.75;;;8.00;;
8544;SDS011;4310;51.054;6.994;2022-08-14T04:32:14;8.95;;;8.05;;
8544;SDS011;4310;51.054;6.994;2022-08-14T04:33:17;8.10;;;7.40;;
8544;SDS011;4310;51.054;6.994;2022-08-14T04:34:21;8.50;;;7.80;;
8544;SDS011;4310;51.054;6.994;2022-08-14T04:35:25;9.20;;;8.40;;
8544;SDS011;4310;51.054;6.994;2022-08-14T04:36:28;8.30;;;7.50;;
8544;SDS011;4310;51.054;6.994;2022-08-14T04:37:32;8.05;;;7.42;;
8544;SDS011;4310;51.054;6.994;2022-08-14T04:38:53;8.78;;;7.97;;
8544;SDS011;4310;51.054;6.994;2022-08-14T04:40:15;8.60;;;7.80;;
8544;SDS011;4310;51.054;6.994;2022-08-14T04:41:36;9.95;;;8.25;;
8544;SDS011;4310;51.054;6.994;2022-08-14T04:44:09;8.38;;;7.67;;
8544;SDS011;4310;51.054;6.994;2022-08-14T04:45:13;9.63;;;8.63;;
8544;SDS011;4310;51.054;6.994;2022-08-14T04:46:18;8.55;;;7.85;;
8544;SDS011;4310;51.054;6.994;2022-08-14T04:47:22;9.03;;;8.15;;
8544;SDS011;4310;51.054;6.994;2022-08-14T04:49:55;8.88;;;8.08;;
8544;SDS011;4310;51.054;6.994;2022-08-14T04:51:01;8.90;;;8.10;;
8544;SDS011;4310;51.054;6.994;2022-08-14T04:53:18;9.25;;;8.38;;
8544;SDS011;4310;51.054;6.994;2022-08-14T04:54:22;9.40;;;8.50;;
8544;SDS011;4310;51.054;6.994;2022-08-14T04:55:28;8.80;;;8.08;;
8544;SDS011;4310;51.054;6.994;2022-08-14T04:56:32;8.93;;;8.10;;
8544;SDS011;4310;51.054;6.994;2022-08-14T04:57:37;8.85;;;8.15;;
8544;SDS011;4310;51.054;6.994;2022-08-14T04:58:41;8.80;;;8.00;;
8544;SDS011;4310;51.054;6.994;2022-08-14T04:59:45;9.38;;;8.58;;
8544;SDS011;4310;51.054;6.994;2022-08-14T05:00:49;8.30;;;7.60;;
8544;SDS011;4310;51.054;6.994;2022-08-14T05:01:53;9.15;;;8.35;;
8544;SDS011;4310;51.054;6.994;2022-08-14T05:05:20;8.85;;;8.10;;
8544;SDS011;4310;51.054;6.994;2022-08-14T05:06:25;9.20;;;8.43;;
8544;SDS011;4310;51.054;6.994;2022-08-14T05:08:40;8.83;;;7.92;;
8544;SDS011;4310;51.054;6.994;2022-08-14T05:09:44;8.78;;;8.08;;
8544;SDS011;4310;51.054;6.994;2022-08-14T05:10:48;8.83;;;8.03;;
8544;SDS011;4310;51.054;6.994;2022-08-14T05:13:04;8.85;;;8.15;;
8544;SDS011;4310;51.054;6.994;2022-08-14T05:14:08;8.88;;;7.97;;
8544;SDS011;4310;51.054;6.994;2022-08-14T05:16:24;8.20;;;7.40;;
8544;SDS011;4310;51.054;6.994;2022-08-14T05:17:30;8.45;;;7.75;;
8544;SDS011;4310;51.054;6.994;2022-08-14T05:18:35;8.60;;;7.90;;
8544;SDS011;4310;51.054;6.994;2022-08-14T05:19:39;9.05;;;7.78;;
8544;SDS011;4310;51.054;6.994;2022-08-14T05:20:43;8.48;;;7.62;;
8544;SDS011;4310;51.054;6.994;2022-08-14T05:21:47;10.25;;;8.38;;
8544;SDS011;4310;51.054;6.994;2022-08-14T05:22:51;8.15;;;7.47;;
8544;SDS011;4310;51.054;6.994;2022-08-14T05:23:55;8.28;;;7.50;;
8544;SDS011;4310;51.054;6.994;2022-08-14T05:24:59;8.60;;;7.80;;
8544;SDS011;4310;51.054;6.994;2022-08-14T05:26:03;8.60;;;7.90;;
8544;SDS011;4310;51.054;6.994;2022-08-14T05:27:10;8.60;;;7.90;;
8544;SDS011;4310;51.054;6.994;2022-08-14T05:28:14;8.45;;;7.78;;
8544;SDS011;4310;51.054;6.994;2022-08-14T05:30:31;8.83;;;8.03;;
8544;SDS011;4310;51.054;6.994;2022-08-14T05:31:35;8.68;;;7.87;;
8544;SDS011;4310;51.054;6.994;2022-08-14T05:32:41;8.50;;;7.55;;
8544;SDS011;4310;51.054;6.994;2022-08-14T05:33:45;8.48;;;7.78;;
8544;SDS011;4310;51.054;6.994;2022-08-14T05:34:48;8.43;;;7.60;;
8544;SDS011;4310;51.054;6.994;2022-08-14T05:35:53;8.20;;;7.42;;
8544;SDS011;4310;51.054;6.994;2022-08-14T05:37:00;8.38;;;7.67;;
8544;SDS011;4310;51.054;6.994;2022-08-14T05:38:06;8.13;;;7.42;;
8544;SDS011;4310;51.054;6.994;2022-08-14T05:39:10;8.33;;;7.65;;
8544;SDS011;4310;51.054;6.994;2022-08-14T05:41:25;8.23;;;7.45;;
8544;SDS011;4310;51.054;6.994;2022-08-14T05:42:29;8.35;;;7.53;;
8544;SDS011;4310;51.054;6.994;2022-08-14T05:43:33;8.80;;;7.70;;
8544;SDS011;4310;51.054;6.994;2022-08-14T05:44:38;8.30;;;7.60;;
8544;SDS011;4310;51.054;6.994;2022-08-14T05:45:41;8.58;;;7.78;;
8544;SDS011;4310;51.054;6.994;2022-08-14T05:46:46;8.03;;;7.33;;
8544;SDS011;4310;51.054;6.994;2022-08-14T05:47:50;8.25;;;7.40;;
8544;SDS011;4310;51.054;6.994;2022-08-14T05:48:54;7.78;;;7.08;;
8544;SDS011;4310;51.054;6.994;2022-08-14T05:49:58;8.33;;;7.40;;
8544;SDS011;4310;51.054;6.994;2022-08-14T05:51:03;8.53;;;7.83;;
8544;SDS011;4310;51.054;6.994;2022-08-14T05:52:07;8.50;;;7.70;;
8544;SDS011;4310;51.054;6.994;2022-08-14T05:53:11;8.68;;;7.22;;
8544;SDS011;4310;51.054;6.994;2022-08-14T05:55:26;8.15;;;7.45;;
8544;SDS011;4310;51.054;6.994;2022-08-14T05:56:30;7.53;;;6.83;;
8544;SDS011;4310;51.054;6.994;2022-08-14T05:57:33;7.85;;;7.15;;
8544;SDS011;4310;51.054;6.994;2022-08-14T05:58:39;7.65;;;6.95;;
8544;SDS011;4310;51.054;6.994;2022-08-14T05:59:43;8.43;;;7.63;;
8544;SDS011;4310;51.054;6.994;2022-08-14T06:00:47;7.85;;;7.10;;
8544;SDS011;4310;51.054;6.994;2022-08-14T06:01:51;7.97;;;7.28;;
8544;SDS011;4310;51.054;6.994;2022-08-14T06:02:55;8.05;;;7.30;;
8544;SDS011;4310;51.054;6.994;2022-08-14T06:03:58;8.10;;;7.40;;
8544;SDS011;4310;51.054;6.994;2022-08-14T06:05:02;7.90;;;7.10;;
8544;SDS011;4310;51.054;6.994;2022-08-14T06:07:18;7.80;;;7.10;;
8544;SDS011;4310;51.054;6.994;2022-08-14T06:08:22;7.90;;;7.20;;
8544;SDS011;4310;51.054;6.994;2022-08-14T06:09:27;7.92;;;7.12;;
8544;SDS011;4310;51.054;6.994;2022-08-14T06:10:30;7.58;;;6.87;;
8544;SDS011;4310;51.054;6.994;2022-08-14T06:11:34;7.50;;;6.80;;
8544;SDS011;4310;51.054;6.994;2022-08-14T06:12:38;7.58;;;6.80;;
8544;SDS011;4310;51.054;6.994;2022-08-14T06:13:42;7.67;;;6.87;;
8544;SDS011;4310;51.054;6.994;2022-08-14T06:14:46;7.97;;;7.00;;
8544;SDS011;4310;51.054;6.994;2022-08-14T06:17:01;7.40;;;6.80;;
8544;SDS011;4310;51.054;6.994;2022-08-14T06:18:05;7.67;;;6.92;;
8544;SDS011;4310;51.054;6.994;2022-08-14T06:19:09;7.47;;;6.62;;
8544;SDS011;4310;51.054;6.994;2022-08-14T06:20:13;7.55;;;6.85;;
8544;SDS011;4310;51.054;6.994;2022-08-14T06:22:28;7.75;;;7.05;;
8544;SDS011;4310;51.054;6.994;2022-08-14T06:23:32;7.20;;;6.60;;
8544;SDS011;4310;51.054;6.994;2022-08-14T06:24:37;6.85;;;6.35;;
8544;SDS011;4310;51.054;6.994;2022-08-14T06:25:41;7.25;;;6.75;;
8544;SDS011;4310;51.054;6.994;2022-08-14T06:26:46;7.55;;;6.85;;
8544;SDS011;4310;51.054;6.994;2022-08-14T06:27:49;7.58;;;6.87;;
8544;SDS011;4310;51.054;6.994;2022-08-14T06:30:06;8.55;;;6.60;;
8544;SDS011;4310;51.054;6.994;2022-08-14T06:31:10;7.47;;;6.80;;
8544;SDS011;4310;51.054;6.994;2022-08-14T06:33:25;7.45;;;6.75;;
8544;SDS011;4310;51.054;6.994;2022-08-14T06:34:29;7.22;;;6.62;;
8544;SDS011;4310;51.054;6.994;2022-08-14T06:35:33;7.17;;;6.58;;
8544;SDS011;4310;51.054;6.994;2022-08-14T06:36:37;7.58;;;6.83;;
8544;SDS011;4310;51.054;6.994;2022-08-14T06:37:41;7.60;;;6.90;;
8544;SDS011;4310;51.054;6.994;2022-08-14T06:38:45;7.37;;;6.78;;
8544;SDS011;4310;51.054;6.994;2022-08-14T06:39:49;7.15;;;6.55;;
8544;SDS011;4310;51.054;6.994;2022-08-14T06:40:52;7.35;;;6.65;;
8544;SDS011;4310;51.054;6.994;2022-08-14T06:41:56;7.08;;;6.47;;
8544;SDS011;4310;51.054;6.994;2022-08-14T06:43:04;7.15;;;6.55;;
8544;SDS011;4310;51.054;6.994;2022-08-14T06:44:05;6.90;;;6.40;;
8544;SDS011;4310;51.054;6.994;2022-08-14T06:45:10;7.12;;;6.42;;
8544;SDS011;4310;51.054;6.994;2022-08-14T06:46:14;6.70;;;6.20;;
8544;SDS011;4310;51.054;6.994;2022-08-14T06:47:18;6.87;;;6.33;;
8544;SDS011;4310;51.054;6.994;2022-08-14T06:48:22;7.40;;;6.70;;
8544;SDS011;4310;51.054;6.994;2022-08-14T06:49:26;7.15;;;6.55;;
8544;SDS011;4310;51.054;6.994;2022-08-14T06:51:42;7.40;;;6.70;;
8544;SDS011;4310;51.054;6.994;2022-08-14T06:52:47;7.30;;;6.20;;
8544;SDS011;4310;51.054;6.994;2022-08-14T06:53:51;7.00;;;6.40;;
8544;SDS011;4310;51.054;6.994;2022-08-14T06:54:54;7.08;;;6.45;;
8544;SDS011;4310;51.054;6.994;2022-08-14T06:55:59;9.15;;;6.65;;
8544;SDS011;4310;51.054;6.994;2022-08-14T06:57:03;7.60;;;6.87;;
8544;SDS011;4310;51.054;6.994;2022-08-14T06:58:09;6.72;;;6.22;;
8544;SDS011;4310;51.054;6.994;2022-08-14T06:59:14;7.10;;;6.45;;
8544;SDS011;4310;51.054;6.994;2022-08-14T07:00:18;6.87;;;6.17;;
8544;SDS011;4310;51.054;6.994;2022-08-14T07:01:22;6.67;;;6.12;;
8544;SDS011;4310;51.054;6.994;2022-08-14T07:02:44;7.12;;;6.42;;
8544;SDS011;4310;51.054;6.994;2022-08-14T07:04:06;6.70;;;6.20;;
8544;SDS011;4310;51.054;6.994;2022-08-14T07:05:27;7.05;;;6.35;;
8544;SDS011;4310;51.054;6.994;2022-08-14T07:06:49;6.55;;;5.95;;
8544;SDS011;4310;51.054;6.994;2022-08-14T07:09:05;7.58;;;6.20;;
8544;SDS011;4310;51.054;6.994;2022-08-14T07:10:09;6.30;;;5.80;;
8544;SDS011;4310;51.054;6.994;2022-08-14T07:12:24;6.80;;;6.30;;
8544;SDS011;4310;51.054;6.994;2022-08-14T07:13:28;6.65;;;6.15;;
8544;SDS011;4310;51.054;6.994;2022-08-14T07:14:32;6.92;;;6.35;;
8544;SDS011;4310;51.054;6.994;2022-08-14T07:15:36;6.70;;;6.10;;
8544;SDS011;4310;51.054;6.994;2022-08-14T07:16:39;7.00;;;5.95;;
8544;SDS011;4310;51.054;6.994;2022-08-14T07:17:44;7.00;;;6.40;;
8544;SDS011;4310;51.054;6.994;2022-08-14T07:18:47;6.33;;;5.80;;
8544;SDS011;4310;51.054;6.994;2022-08-14T07:19:52;6.85;;;6.25;;
8544;SDS011;4310;51.054;6.994;2022-08-14T07:20:56;6.80;;;6.20;;
8544;SDS011;4310;51.054;6.994;2022-08-14T07:23:12;7.05;;;6.45;;
8544;SDS011;4310;51.054;6.994;2022-08-14T07:24:16;6.37;;;5.87;;
8544;SDS011;4310;51.054;6.994;2022-08-14T07:25:20;6.17;;;5.67;;
8544;SDS011;4310;51.054;6.994;2022-08-14T07:26:24;6.62;;;6.03;;
8544;SDS011;4310;51.054;6.994;2022-08-14T07:27:28;6.60;;;6.00;;
8544;SDS011;4310;51.054;6.994;2022-08-14T07:28:32;6.30;;;5.80;;
8544;SDS011;4310;51.054;6.994;2022-08-14T07:29:37;6.72;;;6.12;;
8544;SDS011;4310;51.054;6.994;2022-08-14T07:30:41;6.30;;;5.80;;
8544;SDS011;4310;51.054;6.994;2022-08-14T07:31:44;6.17;;;5.67;;
8544;SDS011;4310;51.054;6.994;2022-08-14T07:32:48;6.47;;;5.87;;
8544;SDS011;4310;51.054;6.994;2022-08-14T07:33:52;6.10;;;5.60;;
8544;SDS011;4310;51.054;6.994;2022-08-14T07:34:56;6.28;;;5.78;;
8544;SDS011;4310;51.054;6.994;2022-08-14T07:36:01;6.08;;;5.65;;